Time;durP1;ratioP1;P1;durP2;ratioP2;P2;SDS_P1;SDS_P2;PMS_P1;PMS_P2;Temp;Humidity;BMP_temperature;BMP_pressure;BME280_temperature;BME280_humidity;BME280_pressure;Samples;Min_cycle;Max_cycle;Signal;HPM_P1;HPM_P2
2022/06/17 00:26:20;;;;;;;2.53;1.92;;;23.60;47.20;;;;;;4881559;29;20508;-89
2022/06/17 00:32:56;;;;;;;3.05;2.00;;;23.50;47.40;;;;;;4865672;29;20045;-87
2022/06/17 00:39:48;;;;;;;3.40;2.15;;;23.40;47.60;;;;;;4862904;29;20555;-87
2022/06/17 00:59:18;;;;;;;2.67;2.00;;;23.20;47.90;;;;;;4884622;29;20064;-88
2022/06/17 01:02:16;;;;;;;2.83;2.08;;;23.10;47.90;;;;;;4862233;29;20371;-88
2022/06/17 01:04:59;;;;;;;2.35;1.90;;;23.10;48.00;;;;;;4846116;29;20045;-88
2022/06/17 01:23:48;;;;;;;2.53;1.83;;;22.90;48.20;;;;;;4861604;29;20040;-88
2022/06/17 02:35:13;;;;;;;2.88;1.92;;;22.10;49.60;;;;;;4911511;29;20539;-87
2022/06/17 02:37:41;;;;;;;2.13;1.73;;;22.10;49.60;;;;;;4847740;29;20506;-88
2022/06/17 03:57:59;;;;;;;3.78;2.42;;;21.30;50.60;;;;;;4792715;29;20054;-88
2022/06/17 04:05:14;;;;;;;2.75;2.20;;;21.20;50.70;;;;;;4836631;29;20103;-88
2022/06/17 04:11:37;;;;;;;3.08;2.40;;;21.20;50.80;;;;;;4842686;29;20067;-87
2022/06/17 04:17:43;;;;;;;3.05;2.30;;;21.10;50.80;;;;;;4862354;29;20048;-89
2022/06/17 04:20:36;;;;;;;2.78;2.30;;;21.10;50.60;;;;;;4840612;29;20494;-87
2022/06/17 04:23:17;;;;;;;2.85;2.17;;;21.10;50.80;;;;;;4844089;29;20042;-87
2022/06/17 04:26:21;;;;;;;3.20;2.45;;;21.10;50.80;;;;;;4847472;29;20182;-87
2022/06/17 04:29:21;;;;;;;2.88;2.20;;;21.10;50.80;;;;;;4856388;29;20056;-87
2022/06/17 04:32:00;;;;;;;4.20;2.42;;;21.10;50.90;;;;;;4841421;29;20100;-88
2022/06/17 04:34:39;;;;;;;3.83;2.60;;;21.10;50.80;;;;;;4882522;29;20025;-88
2022/06/17 04:37:17;;;;;;;3.63;2.55;;;21.10;50.80;;;;;;4865615;29;20039;-87
2022/06/17 04:40:00;;;;;;;3.95;2.60;;;21.10;50.90;;;;;;4877649;29;20036;-90
2022/06/17 04:42:51;;;;;;;3.58;2.53;;;21.10;50.90;;;;;;4874408;29;20025;-87
2022/06/17 04:45:25;;;;;;;3.55;2.40;;;21.10;50.90;;;;;;4872863;29;20029;-86
2022/06/17 04:47:57;;;;;;;2.75;2.40;;;21.10;51.00;;;;;;4863696;29;20029;-89
2022/06/17 04:50:28;;;;;;;2.55;2.28;;;21.10;51.00;;;;;;4876517;29;20494;-89
2022/06/17 04:52:55;;;;;;;3.17;2.47;;;21.10;51.10;;;;;;4862487;29;20029;-89
2022/06/17 04:55:54;;;;;;;2.88;2.40;;;21.10;51.10;;;;;;4867015;29;20478;-89
2022/06/17 04:58:30;;;;;;;3.10;2.38;;;21.10;51.10;;;;;;4880935;29;20036;-89
2022/06/17 05:01:03;;;;;;;3.00;2.30;;;21.10;51.20;;;;;;4880428;29;20546;-89
2022/06/17 05:03:42;;;;;;;2.95;2.60;;;21.10;51.20;;;;;;4863022;29;20029;-90
2022/06/17 05:06:33;;;;;;;3.58;2.50;;;21.10;51.20;;;;;;4859070;29;20029;-90
2022/06/17 05:09:13;;;;;;;3.55;2.63;;;21.10;51.90;;;;;;4883969;29;20060;-91
2022/06/17 05:11:43;;;;;;;3.28;2.45;;;21.10;51.30;;;;;;4865036;29;20424;-84
2022/06/17 05:14:33;;;;;;;3.60;2.47;;;21.10;51.40;;;;;;4884381;29;20474;-87
2022/06/17 05:16:59;;;;;;;2.80;2.15;;;21.10;51.50;;;;;;4869185;29;20068;-88
2022/06/17 05:19:27;;;;;;;4.03;2.33;;;21.10;51.40;;;;;;4888984;29;20033;-86
2022/06/17 05:21:54;;;;;;;2.65;2.28;;;21.10;51.40;;;;;;4884350;29;20029;-81
2022/06/17 05:24:26;;;;;;;3.58;2.20;;;21.10;51.50;;;;;;4846151;29;20056;-85
2022/06/17 05:26:57;;;;;;;3.20;2.30;;;21.10;51.50;;;;;;4874250;29;20036;-84
2022/06/17 05:29:24;;;;;;;3.55;2.42;;;21.10;51.50;;;;;;4874581;29;20031;-84
2022/06/17 05:31:56;;;;;;;4.03;2.80;;;21.10;51.50;;;;;;4870465;29;20116;-85
2022/06/17 05:34:35;;;;;;;2.78;2.33;;;21.10;51.50;;;;;;4883462;29;20469;-85
2022/06/17 05:37:00;;;;;;;3.40;2.45;;;21.10;51.60;;;;;;4874014;29;20066;-82
2022/06/17 05:39:29;;;;;;;2.60;2.25;;;21.10;51.60;;;;;;4869077;29;20085;-87
2022/06/17 05:42:19;;;;;;;3.00;2.40;;;21.10;51.70;;;;;;4867129;29;20040;-87
2022/06/17 05:44:46;;;;;;;2.47;2.17;;;21.10;51.60;;;;;;4867115;29;20649;-86
2022/06/17 05:47:25;;;;;;;2.85;2.28;;;21.10;51.70;;;;;;4860385;29;20067;-92
2022/06/17 05:50:13;;;;;;;2.90;2.35;;;21.10;51.70;;;;;;4868773;29;20490;-88
2022/06/17 05:52:49;;;;;;;2.50;2.03;;;21.10;51.70;;;;;;4852792;29;20064;-88
2022/06/17 05:55:35;;;;;;;2.85;2.30;;;21.10;51.80;;;;;;4877621;29;20056;-88
2022/06/17 05:58:03;;;;;;;3.22;2.30;;;21.10;51.70;;;;;;4879776;29;20033;-87
2022/06/17 06:00:32;;;;;;;2.72;2.20;;;21.20;51.90;;;;;;4880467;29;20053;-88
2022/06/17 06:03:02;;;;;;;4.18;2.60;;;21.20;51.90;;;;;;4865316;29;20029;-87
2022/06/17 06:05:34;;;;;;;2.90;2.28;;;21.20;51.90;;;;;;4864912;29;20509;-87
2022/06/17 06:08:02;;;;;;;3.10;2.25;;;21.20;52.00;;;;;;4878978;29;20089;-85
2022/06/17 06:10:28;;;;;;;2.55;2.20;;;21.20;52.00;;;;;;4849043;29;20036;-87
2022/06/17 06:12:57;;;;;;;3.60;2.50;;;21.20;52.00;;;;;;4868979;29;20073;-88
2022/06/17 06:15:41;;;;;;;3.08;2.33;;;21.30;52.00;;;;;;4875682;29;20033;-89
2022/06/17 06:18:26;;;;;;;3.00;2.42;;;21.30;52.20;;;;;;4871867;29;20067;-88
2022/06/17 06:20:55;;;;;;;2.80;2.00;;;21.30;52.10;;;;;;4865175;29;20029;-88
2022/06/17 06:23:27;;;;;;;2.70;2.33;;;21.30;52.10;;;;;;4880146;29;20037;-87
2022/06/17 06:25:53;;;;;;;3.67;2.35;;;21.30;52.10;;;;;;4857386;29;20488;-88
2022/06/17 06:28:28;;;;;;;3.40;2.10;;;21.40;52.10;;;;;;4859743;29;20125;-87
2022/06/17 06:31:30;;;;;;;2.92;2.00;;;21.40;52.20;;;;;;4860416;29;20083;-87
2022/06/17 06:34:36;;;;;;;;;;;;;;;;;;;;;
2022/06/17 06:37:13;;;;;;;2.63;1.92;;;21.50;52.20;;;;;;4860352;29;20041;-87
2022/06/17 06:39:42;;;;;;;1.90;1.70;;;21.50;52.00;;;;;;4857183;29;20091;-88
2022/06/17 06:42:08;;;;;;;2.58;1.92;;;21.50;52.10;;;;;;4878378;29;20044;-87
2022/06/17 06:44:48;;;;;;;2.42;2.05;;;21.50;52.10;;;;;;4876886;29;20047;-87
2022/06/17 06:47:26;;;;;;;2.40;2.03;;;21.50;52.00;;;;;;4885348;29;20024;-87
2022/06/17 06:50:00;;;;;;;2.67;1.95;;;21.60;52.00;;;;;;4868904;29;20048;-88
2022/06/17 06:52:54;;;;;;;3.53;2.10;;;21.70;52.10;;;;;;4895448;29;20044;-89
2022/06/17 06:55:27;;;;;;;2.85;2.08;;;21.70;52.00;;;;;;4882143;29;20036;-87
2022/06/17 06:58:23;;;;;;;2.13;1.75;;;21.80;52.00;;;;;;4886068;29;20120;-89
2022/06/17 07:00:58;;;;;;;1.80;1.70;;;21.80;52.10;;;;;;4881040;29;20028;-87
2022/06/17 07:03:28;;;;;;;2.75;2.13;;;21.80;51.90;;;;;;4882260;29;20044;-85
2022/06/17 07:06:03;;;;;;;2.10;1.80;;;21.90;52.00;;;;;;4891226;29;20040;-85
2022/06/17 07:08:32;;;;;;;2.92;2.15;;;21.90;51.90;;;;;;4881946;29;20033;-86
2022/06/17 07:11:01;;;;;;;2.30;1.80;;;22.00;52.00;;;;;;4891702;29;20107;-89
2022/06/17 07:13:29;;;;;;;2.63;1.88;;;22.00;52.00;;;;;;4896169;29;20075;-86
2022/06/17 07:15:55;;;;;;;3.03;1.80;;;22.10;52.10;;;;;;4881643;29;20024;-90
2022/06/17 07:18:24;;;;;;;1.83;1.60;;;22.10;52.00;;;;;;4881021;29;20064;-85
2022/06/17 07:20:55;;;;;;;2.55;2.10;;;22.10;52.00;;;;;;4881426;29;20136;-84
2022/06/17 07:23:34;;;;;;;2.20;1.80;;;22.20;52.00;;;;;;4877955;29;20025;-85
2022/06/17 07:26:22;;;;;;;2.40;1.70;;;22.20;52.00;;;;;;4889213;29;20037;-87
2022/06/17 07:28:52;;;;;;;1.80;1.42;;;22.20;52.00;;;;;;4894646;29;20089;-88
2022/06/17 07:31:19;;;;;;;2.83;1.85;;;22.30;51.90;;;;;;4871250;29;20036;-88
2022/06/17 07:33:45;;;;;;;2.08;1.60;;;22.40;51.80;;;;;;4895459;29;20580;-88
2022/06/17 07:39:53;;;;;;;2.28;1.73;;;22.40;51.80;;;;;;4863495;29;20388;-85
2022/06/17 07:41:52;;;;;;;2.55;1.70;;;22.60;51.80;;;;;;4893662;29;20055;-85
2022/06/17 07:44:19;;;;;;;1.95;1.48;;;22.60;51.70;;;;;;4863213;29;20348;-87
2022/06/17 07:46:45;;;;;;;2.33;1.60;;;22.60;51.60;;;;;;4886237;29;20021;-90
2022/06/17 07:49:13;;;;;;;2.55;1.80;;;22.70;51.60;;;;;;4880829;29;20032;-93
2022/06/17 07:51:39;;;;;;;2.38;1.58;;;22.80;51.70;;;;;;4891488;29;20056;-89
2022/06/17 07:54:05;;;;;;;2.80;1.63;;;22.90;51.60;;;;;;4895800;29;20523;-91
2022/06/17 07:56:31;;;;;;;2.17;1.50;;;22.90;51.60;;;;;;4895115;29;20151;-91
2022/06/17 07:58:58;;;;;;;2.05;1.60;;;22.90;52.10;;;;;;4891930;29;20538;-89
2022/06/17 08:01:24;;;;;;;1.65;1.48;;;23.00;51.50;;;;;;4864822;29;20036;-88
2022/06/17 08:03:50;;;;;;;1.48;1.35;;;23.10;51.40;;;;;;4879539;29;20107;-88
2022/06/17 08:06:19;;;;;;;2.03;1.50;;;23.20;51.40;;;;;;4850059;29;20116;-86
2022/06/17 08:08:45;;;;;;;1.33;1.20;;;23.20;51.30;;;;;;4895158;29;20059;-87
2022/06/17 08:11:12;;;;;;;2.00;1.38;;;23.30;51.30;;;;;;4896000;29;20052;-87
2022/06/17 08:13:39;;;;;;;1.77;1.60;;;23.40;51.30;;;;;;4881242;29;20024;-90
2022/06/17 08:16:08;;;;;;;1.75;1.35;;;23.40;51.20;;;;;;4889377;29;20040;-87
2022/06/17 08:18:40;;;;;;;1.60;1.42;;;23.50;51.20;;;;;;4896942;29;20076;-89
2022/06/17 08:21:10;;;;;;;2.13;1.42;;;23.60;51.20;;;;;;4889946;29;20505;-90
2022/06/17 08:23:36;;;;;;;2.38;1.42;;;23.70;51.10;;;;;;4877275;29;20033;-90
2022/06/17 08:26:03;;;;;;;1.83;1.35;;;23.80;51.00;;;;;;4877974;29;20048;-86
2022/06/17 08:28:29;;;;;;;2.28;1.45;;;23.80;51.00;;;;;;4852142;29;20033;-90
2022/06/17 08:30:55;;;;;;;2.20;1.50;;;23.90;51.00;;;;;;4883444;29;20021;-89
2022/06/17 08:33:28;;;;;;;1.77;1.20;;;24.00;50.90;;;;;;4870051;29;20036;-86
2022/06/17 08:35:58;;;;;;;1.67;1.30;;;24.10;50.90;;;;;;4895723;29;20692;-86
2022/06/17 08:38:28;;;;;;;3.22;1.70;;;24.20;50.90;;;;;;4878584;29;20549;-85
2022/06/17 08:40:53;;;;;;;2.00;1.70;;;24.20;50.80;;;;;;4877576;29;20028;-79
2022/06/17 08:43:34;;;;;;;2.08;1.48;;;24.30;50.70;;;;;;4877651;29;20389;-82
2022/06/17 08:46:31;;;;;;;2.30;1.35;;;24.40;50.80;;;;;;4893987;29;20045;-81
2022/06/17 08:49:17;;;;;;;2.15;1.40;;;24.50;50.80;;;;;;4874448;29;20032;-79
2022/06/17 08:52:19;;;;;;;2.05;1.30;;;24.60;50.80;;;;;;4889340;29;20101;-79
2022/06/17 08:55:14;;;;;;;1.80;1.50;;;24.70;50.80;;;;;;4884185;29;20127;-79
2022/06/17 08:57:59;;;;;;;1.40;1.30;;;24.80;50.70;;;;;;4896159;29;20382;-85
2022/06/17 09:00:45;;;;;;;1.98;1.40;;;24.90;50.60;;;;;;4894414;29;20355;-91
2022/06/17 09:03:29;;;;;;;2.10;1.50;;;25.00;50.60;;;;;;4885987;29;20071;-88
2022/06/17 09:06:04;;;;;;;1.40;1.30;;;25.10;50.50;;;;;;4858193;29;20028;-89
2022/06/17 09:08:54;;;;;;;2.05;1.58;;;25.20;50.50;;;;;;4865936;29;20123;-90
2022/06/17 09:11:40;;;;;;;1.42;1.30;;;25.30;50.50;;;;;;4875368;29;20092;-90
2022/06/17 09:14:15;;;;;;;1.27;1.17;;;25.40;50.40;;;;;;4862601;29;20475;-89
2022/06/17 09:17:00;;;;;;;1.60;1.27;;;25.60;50.40;;;;;;4881756;29;20474;-90
2022/06/17 09:19:47;;;;;;;1.90;1.25;;;25.60;50.40;;;;;;4879373;29;20048;-90
2022/06/17 09:22:46;;;;;;;1.92;1.30;;;25.70;50.40;;;;;;4896214;29;20033;-89
2022/06/17 09:25:26;;;;;;;1.65;1.45;;;25.80;50.30;;;;;;4895656;29;20041;-88
2022/06/17 09:28:00;;;;;;;1.55;1.20;;;25.90;50.30;;;;;;4863516;29;20032;-86
2022/06/17 09:30:33;;;;;;;1.33;1.23;;;26.10;50.30;;;;;;4891598;29;20036;-90
2022/06/17 09:33:16;;;;;;;2.00;1.45;;;26.10;50.40;;;;;;4878334;29;20043;-90
2022/06/17 09:36:26;;;;;;;;;;;;;;;;;;;;;
2022/06/17 09:39:25;;;;;;;;;;;;;;;;;;;;;
2022/06/17 09:42:17;;;;;;;1.23;1.13;;;26.50;50.30;;;;;;4876108;29;20021;-93
2022/06/17 09:45:07;;;;;;;1.17;1.10;;;26.60;50.30;;;;;;4885046;29;20036;-92
2022/06/17 09:52:00;;;;;;;1.58;1.13;;;26.80;50.20;;;;;;4812522;29;20057;-90
2022/06/17 09:55:18;;;;;;;1.40;1.17;;;26.90;50.00;;;;;;4807213;29;20027;-96
2022/06/17 09:58:17;;;;;;;1.27;1.17;;;27.00;50.00;;;;;;4868452;29;20033;-93
2022/06/17 10:00:53;;;;;;;1.25;1.17;;;27.20;50.10;;;;;;4882587;29;20048;-92
2022/06/17 10:03:31;;;;;;;1.30;1.13;;;27.20;50.00;;;;;;4875503;29;20045;-81
2022/06/17 10:06:25;;;;;;;1.77;1.20;;;27.40;49.90;;;;;;4854955;29;20039;-82
2022/06/17 10:09:13;;;;;;;1.63;1.20;;;27.50;50.00;;;;;;4892492;29;20487;-81
2022/06/17 10:11:51;;;;;;;1.75;1.20;;;27.60;49.80;;;;;;4886151;29;20296;-80
2022/06/17 10:15:01;;;;;;;1.20;1.10;;;27.70;49.60;;;;;;4857451;29;20037;-85
2022/06/17 10:20:56;;;;;;;1.70;1.23;;;27.90;49.60;;;;;;4848138;29;20033;-85
2022/06/17 10:23:45;;;;;;;1.30;1.10;;;28.00;49.40;;;;;;4851263;29;20136;-83
2022/06/17 10:26:49;;;;;;;1.23;1.10;;;28.10;49.50;;;;;;4842988;29;20025;-84
2022/06/17 10:29:17;;;;;;;2.60;1.08;;;28.20;49.40;;;;;;4890940;29;20034;-84
2022/06/17 10:31:47;;;;;;;1.38;1.23;;;28.30;49.30;;;;;;4862169;29;20048;-85
2022/06/17 10:34:21;;;;;;;1.30;1.20;;;28.40;49.30;;;;;;4853359;29;20041;-84
2022/06/17 10:36:52;;;;;;;1.75;1.38;;;28.50;49.30;;;;;;4872354;29;20116;-85
2022/06/17 10:39:21;;;;;;;1.83;1.38;;;28.60;49.30;;;;;;4858871;29;20069;-81
2022/06/17 10:41:47;;;;;;;1.38;1.20;;;28.60;49.10;;;;;;4870957;29;20029;-86
2022/06/17 10:44:17;;;;;;;1.38;1.20;;;28.70;49.10;;;;;;4865445;29;20129;-81
2022/06/17 10:46:50;;;;;;;1.63;1.30;;;28.80;49.10;;;;;;4861467;29;20033;-82
2022/06/17 10:49:25;;;;;;;1.55;1.20;;;28.90;49.20;;;;;;4869227;29;20029;-84
2022/06/17 10:51:53;;;;;;;1.20;1.10;;;29.00;49.00;;;;;;4883476;29;20505;-84
2022/06/17 10:54:24;;;;;;;1.63;1.38;;;29.10;49.00;;;;;;4894940;29;20076;-81
2022/06/17 10:57:09;;;;;;;1.08;1.00;;;29.20;48.90;;;;;;4895200;29;20028;-82
2022/06/17 10:59:41;;;;;;;1.58;1.13;;;29.30;48.90;;;;;;4877727;29;20036;-86
2022/06/17 11:02:29;;;;;;;2.00;1.20;;;29.40;48.90;;;;;;4894438;29;20036;-82
2022/06/17 11:05:01;;;;;;;1.73;1.20;;;29.40;48.90;;;;;;4894786;29;20040;-84
2022/06/17 11:07:51;;;;;;;1.77;1.20;;;29.50;48.90;;;;;;4895487;29;20035;-80
2022/06/17 11:10:25;;;;;;;1.35;1.25;;;29.60;49.00;;;;;;4879239;29;20064;-83
2022/06/17 11:13:05;;;;;;;;;;;29.60;48.80;;;;;;4880237;29;20028;-85
2022/06/17 11:15:43;;;;;;;1.08;0.98;;;29.70;48.90;;;;;;4891852;29;19912;-90
2022/06/17 11:18:17;;;;;;;1.45;1.08;;;29.80;48.80;;;;;;4891989;29;20035;-87
2022/06/17 11:21:02;;;;;;;1.20;1.10;;;29.80;48.90;;;;;;4896194;29;20120;-88
2022/06/17 11:23:30;;;;;;;1.10;1.00;;;29.80;48.90;;;;;;4868004;29;20260;-89
2022/06/17 11:26:11;;;;;;;1.65;1.25;;;29.90;48.90;;;;;;4864959;29;20032;-88
2022/06/17 11:28:40;;;;;;;1.67;1.30;;;29.90;49.10;;;;;;4874746;29;20040;-88
2022/06/17 11:31:26;;;;;;;1.35;1.00;;;29.90;49.10;;;;;;4879739;29;20024;-86
2022/06/17 11:33:52;;;;;;;1.45;1.00;;;30.00;49.40;;;;;;4866793;29;20131;-86
2022/06/17 11:36:28;;;;;;;1.50;1.30;;;30.00;49.30;;;;;;4881027;29;20056;-88
2022/06/17 11:38:57;;;;;;;1.60;1.10;;;30.00;49.60;;;;;;4895719;29;20052;-87
2022/06/17 11:41:25;;;;;;;1.92;1.15;;;30.10;49.70;;;;;;4894958;29;20032;-85
2022/06/17 11:43:54;;;;;;;1.45;1.23;;;30.10;50.40;;;;;;4896262;29;20047;-87
2022/06/17 11:46:28;;;;;;;1.45;1.15;;;30.10;49.90;;;;;;4895204;29;20060;-88
2022/06/17 11:49:08;;;;;;;1.73;1.20;;;30.20;50.10;;;;;;4880184;29;20036;-88
2022/06/17 11:51:36;;;;;;;1.65;1.05;;;30.20;50.20;;;;;;4880730;29;20044;-87
2022/06/17 11:54:09;;;;;;;1.15;1.02;;;30.20;50.20;;;;;;4896263;29;20100;-88
2022/06/17 11:56:37;;;;;;;0.90;0.90;;;30.20;50.40;;;;;;4864340;29;20553;-89
2022/06/17 11:59:08;;;;;;;1.80;1.10;;;30.30;50.50;;;;;;4881352;29;20060;-88
2022/06/17 12:01:35;;;;;;;2.22;1.23;;;30.30;50.50;;;;;;4881197;29;20039;-88
2022/06/17 12:04:03;;;;;;;1.30;1.20;;;30.30;50.50;;;;;;4901128;29;20043;-90
2022/06/17 12:06:47;;;;;;;2.45;1.30;;;30.30;50.60;;;;;;4884889;29;20056;-90
2022/06/17 12:09:32;;;;;;;1.38;1.20;;;30.30;50.70;;;;;;4891137;29;20845;-89
2022/06/17 12:12:02;;;;;;;1.00;1.00;;;30.30;50.70;;;;;;4881299;29;20048;-90
2022/06/17 12:14:44;;;;;;;1.85;1.40;;;30.40;50.60;;;;;;4896938;29;20545;-90
2022/06/17 12:17:14;;;;;;;1.05;0.95;;;30.30;50.70;;;;;;4870640;29;20108;-91
2022/06/17 12:19:40;;;;;;;1.05;0.95;;;30.40;50.60;;;;;;4889544;29;20374;-89
2022/06/17 12:22:20;;;;;;;1.42;1.20;;;30.40;50.50;;;;;;4864831;29;20040;-88
2022/06/17 12:24:58;;;;;;;1.63;1.20;;;30.40;50.60;;;;;;4896759;29;20032;-88
2022/06/17 12:27:41;;;;;;;1.08;0.98;;;30.40;50.60;;;;;;4875710;29;20525;-90
2022/06/17 12:30:11;;;;;;;3.35;1.38;;;30.40;50.50;;;;;;4881793;29;20029;-84
2022/06/17 12:32:50;;;;;;;1.42;1.30;;;30.40;50.50;;;;;;4874169;29;20080;-87
2022/06/17 12:35:25;;;;;;;4.55;1.30;;;30.40;50.50;;;;;;4879035;29;20560;-88
2022/06/17 12:38:13;;;;;;;1.33;1.17;;;30.50;50.40;;;;;;4880247;29;20095;-88
2022/06/17 12:40:45;;;;;;;1.90;1.30;;;30.50;50.40;;;;;;4886986;29;20120;-89
2022/06/17 12:43:14;;;;;;;1.30;1.20;;;30.50;50.30;;;;;;4876567;29;20024;-89
2022/06/17 12:45:49;;;;;;;1.20;1.10;;;30.50;50.20;;;;;;4891526;29;20025;-87
2022/06/17 12:48:49;;;;;;;1.50;1.20;;;30.50;50.30;;;;;;4876602;29;20020;-84
2022/06/17 12:54:46;;;;;;;1.83;1.13;;;30.50;50.30;;;;;;4896953;29;20031;-86
2022/06/17 12:57:28;;;;;;;;;;;30.50;50.10;;;;;;4863544;29;20047;-84
2022/06/17 13:00:16;;;;;;;1.90;0.98;;;30.50;50.10;;;;;;4893018;29;19915;-83
2022/06/17 13:03:10;;;;;;;1.30;1.10;;;30.50;50.00;;;;;;4893426;29;20039;-84
2022/06/17 13:05:46;;;;;;;1.17;1.05;;;30.50;50.00;;;;;;4892530;29;20258;-85
2022/06/17 13:08:37;;;;;;;1.25;1.10;;;30.50;50.00;;;;;;4878921;29;20032;-84
2022/06/17 13:11:12;;;;;;;1.38;1.20;;;30.50;49.90;;;;;;4887141;29;20033;-83
2022/06/17 13:14:01;;;;;;;1.40;1.20;;;30.50;49.90;;;;;;4884853;29;20041;-83
2022/06/17 13:16:33;;;;;;;1.50;1.20;;;30.60;49.90;;;;;;4889255;29;20373;-84
2022/06/17 13:19:26;;;;;;;1.38;1.20;;;30.60;49.70;;;;;;4877769;29;20072;-89
2022/06/17 13:22:01;;;;;;;0.93;0.93;;;30.60;49.80;;;;;;4885384;29;20489;-85
2022/06/17 13:24:38;;;;;;;1.20;1.10;;;30.60;49.60;;;;;;4882921;29;20115;-85
2022/06/17 13:27:30;;;;;;;1.75;1.33;;;30.60;49.60;;;;;;4898897;29;20493;-84
2022/06/17 13:30:03;;;;;;;1.40;1.20;;;30.60;49.60;;;;;;4882707;29;20363;-86
2022/06/17 13:32:41;;;;;;;2.25;1.40;;;30.60;49.40;;;;;;4883230;29;20470;-87
2022/06/17 13:35:28;;;;;;;1.60;1.40;;;30.70;49.50;;;;;;4898642;29;20512;-84
2022/06/17 13:38:05;;;;;;;1.65;1.30;;;30.60;49.40;;;;;;4890050;29;20480;-84
2022/06/17 13:40:43;;;;;;;1.40;1.30;;;30.70;49.40;;;;;;4896497;29;20133;-85
2022/06/17 13:43:18;;;;;;;1.38;1.20;;;30.70;49.40;;;;;;4881951;29;20116;-85
2022/06/17 13:45:47;;;;;;;1.98;1.33;;;30.70;49.30;;;;;;4899066;29;20446;-84
2022/06/17 13:48:22;;;;;;;1.17;1.00;;;30.70;49.30;;;;;;4883206;29;20035;-85
2022/06/17 13:51:02;;;;;;;1.60;1.20;;;30.70;49.30;;;;;;4878553;29;20056;-86
2022/06/17 13:53:52;;;;;;;1.50;1.00;;;30.70;49.20;;;;;;4895568;29;20044;-85
2022/06/17 13:56:45;;;;;;;0.80;0.80;;;30.70;49.10;;;;;;4882864;29;20477;-86
2022/06/17 13:59:33;;;;;;;2.05;1.20;;;30.70;49.00;;;;;;4884283;29;20359;-85
2022/06/17 14:02:14;;;;;;;1.10;1.00;;;30.80;49.10;;;;;;4881570;29;20531;-85
2022/06/17 14:05:01;;;;;;;1.30;1.10;;;30.80;49.10;;;;;;4882504;29;20036;-86
2022/06/17 14:07:48;;;;;;;1.65;1.20;;;30.80;49.10;;;;;;4886238;29;20036;-85
2022/06/17 14:10:28;;;;;;;1.20;1.10;;;30.80;49.00;;;;;;4899075;29;20033;-86
2022/06/17 14:12:54;;;;;;;1.73;1.10;;;30.80;48.90;;;;;;4898476;29;20040;-85
2022/06/17 14:15:34;;;;;;;1.10;1.00;;;30.90;48.80;;;;;;4897801;29;20032;-85
2022/06/17 14:18:03;;;;;;;1.60;1.10;;;30.90;48.90;;;;;;4894705;29;20024;-84
2022/06/17 14:20:37;;;;;;;1.48;1.20;;;30.90;48.80;;;;;;4894454;29;20025;-86
2022/06/17 14:23:55;;;;;;;2.05;1.10;;;30.90;48.70;;;;;;4881711;29;20033;-86
2022/06/17 14:26:39;;;;;;;1.55;1.17;;;30.90;48.80;;;;;;4896880;29;20044;-88
2022/06/17 14:29:26;;;;;;;1.10;1.00;;;30.90;48.70;;;;;;4882622;29;20029;-85
2022/06/17 14:31:56;;;;;;;1.10;1.00;;;31.00;48.60;;;;;;4883156;29;20184;-85
2022/06/17 14:34:50;;;;;;;1.02;0.95;;;31.00;48.60;;;;;;4876001;29;20041;-85
2022/06/17 14:37:34;;;;;;;0.90;0.90;;;31.00;48.70;;;;;;4849629;29;20033;-85
2022/06/17 14:40:07;;;;;;;0.90;0.90;;;31.10;48.60;;;;;;4881908;29;20537;-86
2022/06/17 14:42:54;;;;;;;0.93;0.90;;;31.10;48.50;;;;;;4898454;29;20056;-83
2022/06/17 14:45:46;;;;;;;0.85;0.85;;;31.10;48.50;;;;;;4897006;29;20525;-83
2022/06/17 14:48:12;;;;;;;1.23;1.00;;;31.20;48.40;;;;;;4880780;29;20025;-87
2022/06/17 14:50:57;;;;;;;1.02;0.95;;;31.20;48.30;;;;;;4887025;29;20085;-86
2022/06/17 14:53:35;;;;;;;0.93;0.93;;;31.20;48.40;;;;;;4878628;29;20045;-85
2022/06/17 14:56:15;;;;;;;1.27;1.10;;;31.20;48.30;;;;;;4869664;29;20124;-84
2022/06/17 14:58:46;;;;;;;0.98;0.93;;;31.20;48.20;;;;;;4860438;29;20089;-82
2022/06/17 15:01:52;;;;;;;1.30;1.20;;;31.20;48.10;;;;;;4861037;29;20033;-83
2022/06/17 15:04:25;;;;;;;1.45;1.10;;;31.20;48.90;;;;;;4857186;29;20128;-85
2022/06/17 15:06:53;;;;;;;1.15;1.08;;;31.30;48.20;;;;;;4860601;29;20028;-81
2022/06/17 15:09:30;;;;;;;1.13;1.02;;;31.30;48.10;;;;;;4877016;29;20036;-83
2022/06/17 15:12:05;;;;;;;1.27;1.17;;;31.30;48.10;;;;;;4875050;29;20041;-82
2022/06/17 15:14:43;;;;;;;1.67;0.90;;;31.30;48.10;;;;;;4859734;29;20072;-84
2022/06/17 15:17:16;;;;;;;0.93;0.90;;;31.30;48.10;;;;;;4859509;29;20044;-87
2022/06/17 15:19:49;;;;;;;1.67;1.20;;;31.30;48.10;;;;;;4849620;29;20021;-88
2022/06/17 15:22:24;;;;;;;1.23;1.10;;;31.40;48.00;;;;;;4843617;29;20026;-83
2022/06/17 15:24:59;;;;;;;1.20;1.10;;;31.40;48.00;;;;;;4862014;29;20037;-85
2022/06/17 15:27:48;;;;;;;0.80;0.80;;;31.40;47.90;;;;;;4858861;29;20029;-87
2022/06/17 15:30:32;;;;;;;1.13;0.90;;;31.40;47.90;;;;;;4858604;29;20025;-86
2022/06/17 15:32:59;;;;;;;;;;;31.50;47.90;;;;;;4861561;29;20550;-86
2022/06/17 15:35:30;;;;;;;0.80;0.80;;;31.50;48.00;;;;;;4845572;29;19919;-84
2022/06/17 15:38:35;;;;;;;0.82;0.82;;;31.50;47.80;;;;;;4860630;29;20029;-89
2022/06/17 15:41:22;;;;;;;0.80;0.80;;;31.50;48.10;;;;;;4850685;29;20127;-84
2022/06/17 15:44:14;;;;;;;0.98;0.90;;;31.50;48.10;;;;;;4872153;29;20115;-82
2022/06/17 15:46:45;;;;;;;0.88;0.80;;;31.60;48.30;;;;;;4851470;29;20037;-85
2022/06/17 15:49:21;;;;;;;0.98;0.73;;;31.60;48.20;;;;;;4873621;29;20141;-85
2022/06/17 15:56:21;;;;;;;0.80;0.80;;;31.70;48.30;;;;;;4876794;29;20047;-84
2022/06/17 15:59:00;;;;;;;0.93;0.88;;;31.80;48.00;;;;;;4851590;29;20049;-86
2022/06/17 16:01:33;;;;;;;1.23;1.00;;;31.80;47.70;;;;;;4850853;29;20033;-82
2022/06/17 16:04:20;;;;;;;1.38;0.90;;;31.90;47.00;;;;;;4862138;29;20037;-83
2022/06/17 16:07:22;;;;;;;1.52;1.13;;;31.90;46.40;;;;;;4875374;29;20039;-83
2022/06/17 16:10:06;;;;;;;1.20;0.98;;;32.00;45.90;;;;;;4856904;29;20147;-83
2022/06/17 16:12:37;;;;;;;0.82;0.82;;;32.00;45.10;;;;;;4856230;29;20564;-85
2022/06/17 16:15:17;;;;;;;1.10;0.88;;;32.10;44.50;;;;;;4844803;29;20033;-82
2022/06/17 16:17:48;;;;;;;1.50;0.80;;;32.10;44.10;;;;;;4875741;29;20029;-83
2022/06/17 16:20:36;;;;;;;1.55;0.90;;;32.10;43.70;;;;;;4861679;29;20037;-83
2022/06/17 16:23:34;;;;;;;0.95;0.80;;;32.10;44.10;;;;;;4844886;29;21020;-84
2022/06/17 16:26:42;;;;;;;1.27;0.80;;;32.10;43.20;;;;;;4855137;29;20045;-84
2022/06/17 16:29:52;;;;;;;1.38;0.80;;;32.20;43.00;;;;;;4843628;29;20029;-83
2022/06/17 16:32:31;;;;;;;2.83;0.98;;;32.20;43.00;;;;;;4874059;29;20068;-84
2022/06/17 16:34:58;;;;;;;1.75;1.00;;;32.20;42.80;;;;;;4859875;29;20082;-84
2022/06/17 16:37:31;;;;;;;0.95;0.82;;;32.20;42.60;;;;;;4861454;29;20040;-86
2022/06/17 16:46:17;;;;;;;0.85;0.85;;;32.30;42.50;;;;;;4854644;29;20029;-86
2022/06/17 16:48:43;;;;;;;1.23;0.90;;;32.30;42.50;;;;;;4874411;29;20622;-85
2022/06/17 16:51:12;;;;;;;1.23;1.10;;;32.30;42.50;;;;;;4860086;29;20048;-84
2022/06/17 16:53:59;;;;;;;3.15;1.48;;;32.30;42.50;;;;;;4847008;29;20024;-86
2022/06/17 16:56:31;;;;;;;4.35;1.50;;;32.30;42.60;;;;;;4881658;29;20040;-84
2022/06/17 16:58:59;;;;;;;3.65;1.30;;;32.30;42.40;;;;;;4865404;29;20059;-81
2022/06/17 17:01:27;;;;;;;2.22;1.45;;;32.40;42.30;;;;;;4877614;29;20029;-81
2022/06/17 17:03:53;;;;;;;4.63;3.80;;;32.40;42.20;;;;;;4869123;29;20427;-84
2022/06/17 17:06:22;;;;;;;7.22;6.50;;;32.40;42.20;;;;;;4878386;29;20039;-82
2022/06/17 17:08:48;;;;;;;10.45;9.45;;;32.40;42.30;;;;;;4876220;29;20533;-82
2022/06/17 17:11:23;;;;;;;8.77;7.97;;;32.40;42.30;;;;;;4860910;29;20033;-91
2022/06/17 17:13:49;;;;;;;5.85;4.97;;;32.40;42.20;;;;;;4883926;29;20491;-81
2022/06/17 17:16:16;;;;;;;4.20;3.67;;;32.40;42.20;;;;;;4878964;29;20039;-83
2022/06/17 17:18:42;;;;;;;3.80;3.10;;;32.40;42.10;;;;;;4865486;29;20052;-83
2022/06/17 17:21:11;;;;;;;3.85;2.80;;;32.50;42.20;;;;;;4847744;29;20033;-82
2022/06/17 17:23:40;;;;;;;4.32;2.80;;;32.50;42.20;;;;;;4865423;29;20056;-80
2022/06/17 17:26:07;;;;;;;2.42;1.85;;;32.40;42.10;;;;;;4864521;29;20048;-82
2022/06/17 17:28:35;;;;;;;2.47;1.75;;;32.40;42.00;;;;;;4862946;29;20041;-81
2022/06/17 17:31:01;;;;;;;3.47;1.67;;;32.50;42.10;;;;;;4884748;29;20029;-80
2022/06/17 17:33:27;;;;;;;3.58;1.63;;;32.50;42.10;;;;;;4882748;29;20040;-81
2022/06/17 17:35:53;;;;;;;2.28;1.60;;;32.40;42.10;;;;;;4865598;29;20036;-84
2022/06/17 17:38:21;;;;;;;2.47;1.45;;;32.50;42.20;;;;;;4864588;29;20085;-85
2022/06/17 17:40:49;;;;;;;2.25;1.45;;;32.50;42.10;;;;;;4866668;29;20119;-81
2022/06/17 17:43:17;;;;;;;1.42;1.20;;;32.50;42.60;;;;;;4865792;29;20116;-81
2022/06/17 17:45:45;;;;;;;1.77;1.40;;;32.50;41.90;;;;;;4855022;29;20622;-81
2022/06/17 17:48:13;;;;;;;1.40;1.30;;;32.50;41.90;;;;;;4867701;29;20034;-80
2022/06/17 17:50:39;;;;;;;1.17;1.10;;;32.40;41.90;;;;;;4887149;29;20064;-81
2022/06/17 17:53:05;;;;;;;1.20;1.10;;;32.40;41.90;;;;;;4875039;29;20506;-82